Terminal Aerodrome Forecast
Issued by NWS Twin Cities, MN

Home | Current Version | Previous Version | Text Only | Print | Product List | Glossary Off
Versions: 1 2 3 4 5 6 7 8 9 10 11 12 13 14 15 16 17 18 19 20 21 22 23 24

000
FTUS43 KMPX 261400 AAA
TAFMSP
TAF AMD
KMSP 261458Z 2615/2718 31007KT P6SM SCT250
     FM270300 02002KT P6SM BKN110=

USA.gov is the U.S. government's official web portal to all federal, state and local government web resources and services.